Time;durP1;ratioP1;P1;durP2;ratioP2;P2;SDS_P1;SDS_P2;PMS_P1;PMS_P2;Temp;Humidity;BMP_temperature;BMP_pressure;BME280_temperature;BME280_humidity;BME280_pressure;Samples;Min_cycle;Max_cycle;Signal;HPM_P1;HPM_P2
2023/05/11 00:01:37;;;;;;;23.80;4.25;;;;;;;;;;6186878;28;20293;-78
2023/05/11 00:04:43;;;;;;;16.58;4.35;;;;;;;;;;6184683;28;20591;-78
2023/05/11 00:07:49;;;;;;;10.15;4.70;;;;;;;;;;6186109;28;20289;-77
2023/05/11 00:10:54;;;;;;;8.20;4.00;;;;;;;;;;6185231;28;20607;-77
2023/05/11 00:13:59;;;;;;;14.00;3.72;;;;;;;;;;6185076;28;20293;-77
2023/05/11 00:17:05;;;;;;;6.85;4.18;;;;;;;;;;6185454;28;20309;-79
2023/05/11 00:20:11;;;;;;;7.75;4.18;;;;;;;;;;6185506;28;20294;-78
2023/05/11 00:23:17;;;;;;;4.70;3.90;;;;;;;;;;6185361;28;20293;-78
2023/05/11 00:26:22;;;;;;;6.63;4.07;;;;;;;;;;6188917;28;20286;-77
2023/05/11 00:29:28;;;;;;;20.75;4.50;;;;;;;;;;6204946;28;20297;-78
2023/05/11 00:32:33;;;;;;;14.63;4.60;;;;;;;;;;6190885;28;20290;-78
2023/05/11 00:35:38;;;;;;;21.98;4.53;;;;;;;;;;6206943;28;20294;-78
2023/05/11 00:38:45;;;;;;;23.33;4.85;;;;;;;;;;6197328;28;20286;-78
2023/05/11 00:41:50;;;;;;;16.17;4.15;;;;;;;;;;6206648;28;20318;-79
2023/05/11 00:44:55;;;;;;;14.90;4.18;;;;;;;;;;6190017;28;20302;-79
2023/05/11 00:48:00;;;;;;;10.10;4.25;;;;;;;;;;6189713;28;20329;-79
2023/05/11 00:51:06;;;;;;;4.95;4.22;;;;;;;;;;6190130;28;20530;-79
2023/05/11 00:54:14;;;;;;;5.55;3.95;;;;;;;;;;6204746;28;20297;-78
2023/05/11 00:57:20;;;;;;;5.18;3.83;;;;;;;;;;6190051;28;20301;-79
2023/05/11 01:00:25;;;;;;;5.72;3.67;;;;;;;;;;6204794;28;20369;-77
2023/05/11 01:03:30;;;;;;;5.05;3.97;;;;;;;;;;6217224;22;20491;-76
2023/05/11 01:06:43;;;;;;;7.07;3.95;;;;;;;;;;6214390;28;20549;-75
2023/05/11 01:09:59;;;;;;;4.90;4.45;;;;;;;;;;6229007;28;20304;-76
2023/05/11 01:13:11;;;;;;;5.72;3.95;;;;;;;;;;6214140;28;20289;-76
2023/05/11 01:16:20;;;;;;;6.82;3.63;;;;;;;;;;6229072;28;20601;-76
2023/05/11 01:19:40;;;;;;;9.60;4.00;;;;;;;;;;6212038;28;20285;-76
2023/05/11 01:23:07;;;;;;;9.00;3.97;;;;;;;;;;6212894;28;20318;-76
2023/05/11 01:26:35;;;;;;;4.93;3.92;;;;;;;;;;6236639;28;20291;-76
2023/05/11 01:29:56;;;;;;;4.00;3.70;;;;;;;;;;6224044;28;20601;-76
2023/05/11 01:33:07;;;;;;;6.93;3.53;;;;;;;;;;6213625;28;20293;-76
2023/05/11 01:36:13;;;;;;;5.18;3.70;;;;;;;;;;6214189;28;20302;-74
2023/05/11 01:39:22;;;;;;;4.80;3.72;;;;;;;;;;6228265;28;20289;-76
2023/05/11 01:42:35;;;;;;;6.90;3.65;;;;;;;;;;6212119;28;20301;-75
2023/05/11 01:45:43;;;;;;;3.60;3.40;;;;;;;;;;6213250;28;20423;-77
2023/05/11 01:48:53;;;;;;;4.88;3.50;;;;;;;;;;6211949;28;20397;-74
2023/05/11 01:52:00;;;;;;;5.53;3.58;;;;;;;;;;6213321;28;20537;-77
2023/05/11 01:55:06;;;;;;;4.07;3.50;;;;;;;;;;6227828;28;20298;-76
2023/05/11 01:58:15;;;;;;;7.50;3.47;;;;;;;;;;6212853;28;20289;-75
2023/05/11 02:01:20;;;;;;;6.45;3.20;;;;;;;;;;6212486;28;20609;-75
2023/05/11 02:04:29;;;;;;;6.38;3.60;;;;;;;;;;6222927;28;20494;-74
2023/05/11 02:07:36;;;;;;;3.30;3.20;;;;;;;;;;6227718;28;20299;-77
2023/05/11 02:10:42;;;;;;;4.75;3.53;;;;;;;;;;6211543;28;20285;-75
2023/05/11 02:13:48;;;;;;;3.72;3.38;;;;;;;;;;6212830;28;20320;-76
2023/05/11 02:16:53;;;;;;;3.10;3.00;;;;;;;;;;6211809;28;20285;-76
2023/05/11 02:20:01;;;;;;;3.55;3.40;;;;;;;;;;6211479;28;20317;-76
2023/05/11 02:23:11;;;;;;;3.72;3.42;;;;;;;;;;6211080;28;20294;-76
2023/05/11 02:26:17;;;;;;;3.83;3.25;;;;;;;;;;6227853;28;20293;-75
2023/05/11 02:29:22;;;;;;;3.28;3.08;;;;;;;;;;6212161;28;20294;-76
2023/05/11 02:32:28;;;;;;;3.90;3.28;;;;;;;;;;6212729;28;20297;-74
2023/05/11 02:35:38;;;;;;;6.40;3.30;;;;;;;;;;6210799;28;20309;-75
2023/05/11 02:38:44;;;;;;;3.45;3.35;;;;;;;;;;6210940;28;20281;-76
2023/05/11 02:41:55;;;;;;;3.45;3.15;;;;;;;;;;6211314;28;20289;-76
2023/05/11 02:45:02;;;;;;;3.63;3.20;;;;;;;;;;6210608;28;20305;-76
2023/05/11 02:48:11;;;;;;;8.02;3.40;;;;;;;;;;6209888;28;20301;-75
2023/05/11 02:51:19;;;;;;;4.00;3.42;;;;;;;;;;6227259;28;20297;-76
2023/05/11 02:54:27;;;;;;;5.30;3.10;;;;;;;;;;6210753;28;20482;-76
2023/05/11 02:57:32;;;;;;;3.15;2.83;;;;;;;;;;6211133;28;20292;-75
2023/05/11 03:00:43;;;;;;;6.97;3.10;;;;;;;;;;6210513;28;20305;-75
2023/05/11 03:03:48;;;;;;;3.50;3.20;;;;;;;;;;6196600;28;20297;-76
2023/05/11 03:06:56;;;;;;;3.58;3.35;;;;;;;;;;6223142;28;20578;-76
2023/05/11 03:10:02;;;;;;;4.07;3.10;;;;;;;;;;6224891;28;20356;-76
2023/05/11 03:13:15;;;;;;;6.43;3.42;;;;;;;;;;6210397;28;20298;-76
2023/05/11 03:16:21;;;;;;;3.13;2.92;;;;;;;;;;6217768;28;20292;-75
2023/05/11 03:19:28;;;;;;;3.55;3.25;;;;;;;;;;6229857;28;20300;-75
2023/05/11 03:22:36;;;;;;;3.88;3.20;;;;;;;;;;6259018;28;20276;-76
2023/05/11 03:25:42;;;;;;;3.20;3.00;;;;;;;;;;6236693;28;20300;-76
2023/05/11 03:28:48;;;;;;;4.60;3.15;;;;;;;;;;6252812;28;20291;-75
2023/05/11 03:31:54;;;;;;;4.07;3.60;;;;;;;;;;6258802;28;20288;-76
2023/05/11 03:35:00;;;;;;;4.80;3.20;;;;;;;;;;6245161;28;20292;-76
2023/05/11 03:38:07;;;;;;;3.33;3.22;;;;;;;;;;6234667;28;20316;-75
2023/05/11 03:41:15;;;;;;;3.25;3.05;;;;;;;;;;6226536;28;20293;-75
2023/05/11 03:44:26;;;;;;;3.40;3.20;;;;;;;;;;6209427;28;20345;-75
2023/05/11 03:47:34;;;;;;;3.28;3.00;;;;;;;;;;6209806;28;20292;-75
2023/05/11 03:50:39;;;;;;;2.97;2.85;;;;;;;;;;6225508;28;20309;-75
2023/05/11 03:53:46;;;;;;;5.28;3.20;;;;;;;;;;6210447;28;20300;-76
2023/05/11 03:56:52;;;;;;;3.47;3.30;;;;;;;;;;6209503;28;20292;-75
2023/05/11 03:59:57;;;;;;;4.07;3.25;;;;;;;;;;6227493;28;20581;-76
2023/05/11 04:03:05;;;;;;;4.05;3.72;;;;;;;;;;6216502;28;20313;-75
2023/05/11 04:06:10;;;;;;;5.68;3.20;;;;;;;;;;6218705;28;20296;-75
2023/05/11 04:09:17;;;;;;;10.00;3.83;;;;;;;;;;6217286;28;20304;-77
2023/05/11 04:12:22;;;;;;;7.50;3.08;;;;;;;;;;6222376;28;20293;-76
2023/05/11 04:15:29;;;;;;;3.55;3.35;;;;;;;;;;6217271;28;20296;-75
2023/05/11 04:18:35;;;;;;;4.18;3.25;;;;;;;;;;6218500;28;20340;-75
2023/05/11 04:21:40;;;;;;;3.58;2.83;;;;;;;;;;6217973;28;20288;-75
2023/05/11 04:24:47;;;;;;;6.05;3.08;;;;;;;;;;6218368;28;20306;-74
2023/05/11 04:27:52;;;;;;;5.07;3.30;;;;;;;;;;6208507;28;20289;-75
2023/05/11 04:30:58;;;;;;;6.78;3.10;;;;;;;;;;6217586;28;20292;-74
2023/05/11 04:34:03;;;;;;;5.70;3.33;;;;;;;;;;6217046;28;20316;-76
2023/05/11 04:37:10;;;;;;;7.60;3.17;;;;;;;;;;6219031;28;20301;-75
2023/05/11 04:40:18;;;;;;;4.32;3.10;;;;;;;;;;6233441;28;20612;-76
2023/05/11 04:43:25;;;;;;;8.77;3.33;;;;;;;;;;6217084;28;20297;-76
2023/05/11 04:46:30;;;;;;;4.80;2.97;;;;;;;;;;6241868;28;20272;-75
2023/05/11 04:49:36;;;;;;;3.03;2.83;;;;;;;;;;6257693;28;20318;-76
2023/05/11 04:52:41;;;;;;;5.57;2.70;;;;;;;;;;6257948;28;20288;-76
2023/05/11 04:55:48;;;;;;;9.30;3.08;;;;;;;;;;6218358;28;20315;-75
2023/05/11 04:58:53;;;;;;;4.30;3.42;;;;;;;;;;6216815;28;20325;-75
2023/05/11 05:01:58;;;;;;;18.90;3.53;;;;;;;;;;6232806;28;20293;-75
2023/05/11 05:05:03;;;;;;;8.60;3.15;;;;;;;;;;6218537;28;20617;-75
2023/05/11 05:08:09;;;;;;;8.45;3.22;;;;;;;;;;6232821;28;20289;-75
2023/05/11 05:11:16;;;;;;;3.55;2.80;;;;;;;;;;6232037;28;20569;-75
2023/05/11 05:14:24;;;;;;;5.03;3.38;;;;;;;;;;6228568;28;20289;-75
2023/05/11 05:17:30;;;;;;;6.53;3.47;;;;;;;;;;6229162;28;20289;-75
2023/05/11 05:20:35;;;;;;;6.60;2.97;;;;;;;;;;6212723;28;20289;-74
2023/05/11 05:23:40;;;;;;;6.22;3.20;;;;;;;;;;6227354;28;20496;-75
2023/05/11 05:26:47;;;;;;;12.88;2.85;;;;;;;;;;6218477;28;20289;-75
2023/05/11 05:29:52;;;;;;;3.30;3.00;;;;;;;;;;6227556;28;20300;-76
2023/05/11 05:32:58;;;;;;;3.60;3.08;;;;;;;;;;6224692;28;20301;-75
2023/05/11 05:36:04;;;;;;;6.30;3.00;;;;;;;;;;6202297;28;20357;-75
2023/05/11 05:39:11;;;;;;;6.35;3.35;;;;;;;;;;6189353;28;20298;-75
2023/05/11 05:42:19;;;;;;;14.05;3.40;;;;;;;;;;6188686;28;20450;-75
2023/05/11 05:45:24;;;;;;;6.53;3.10;;;;;;;;;;6205549;28;20301;-74
2023/05/11 05:48:30;;;;;;;8.00;2.95;;;;;;;;;;6227690;28;20300;-80
2023/05/11 05:51:36;;;;;;;6.28;2.97;;;;;;;;;;6228085;28;20289;-75
2023/05/11 05:54:51;;;;;;;3.65;3.25;;;;;;;;;;6212559;28;20379;-74
2023/05/11 05:57:57;;;;;;;5.10;3.10;;;;;;;;;;6220317;28;20309;-74
2023/05/11 06:01:02;;;;;;;7.72;2.88;;;;;;;;;;6206805;28;20298;-75
2023/05/11 06:04:08;;;;;;;8.60;3.40;;;;;;;;;;6188119;28;20305;-76
2023/05/11 06:07:14;;;;;;;4.57;2.65;;;;;;;;;;6189305;28;20468;-75
2023/05/11 06:10:19;;;;;;;5.35;2.90;;;;;;;;;;6190885;28;20293;-74
2023/05/11 06:13:26;;;;;;;3.20;2.80;;;;;;;;;;6211658;28;20293;-74
2023/05/11 06:16:31;;;;;;;10.55;2.78;;;;;;;;;;6210955;28;20281;-74
2023/05/11 06:19:37;;;;;;;6.65;3.40;;;;;;;;;;6227455;28;20458;-76
2023/05/11 06:22:42;;;;;;;8.48;2.80;;;;;;;;;;6227611;28;20281;-75
2023/05/11 06:25:48;;;;;;;6.32;2.97;;;;;;;;;;6227080;28;20300;-74
2023/05/11 06:28:55;;;;;;;9.82;3.00;;;;;;;;;;6227856;28;20374;-76
2023/05/11 06:32:01;;;;;;;5.38;3.50;;;;;;;;;;6228365;28;20317;-75
2023/05/11 06:35:10;;;;;;;5.63;3.10;;;;;;;;;;6206780;28;20298;-76
2023/05/11 06:38:16;;;;;;;2.80;2.60;;;;;;;;;;6186815;28;20290;-76
2023/05/11 06:41:21;;;;;;;6.75;2.85;;;;;;;;;;6187615;28;20293;-76
2023/05/11 06:44:28;;;;;;;3.97;2.85;;;;;;;;;;6187760;28;20293;-76
2023/05/11 06:47:34;;;;;;;4.15;2.45;;;;;;;;;;6187433;28;20289;-77
2023/05/11 06:50:40;;;;;;;6.03;2.78;;;;;;;;;;6186935;28;20293;-76
2023/05/11 06:53:49;;;;;;;10.85;3.00;;;;;;;;;;6187801;28;20310;-76
2023/05/11 06:56:54;;;;;;;6.40;2.70;;;;;;;;;;6188113;28;20299;-76
2023/05/11 07:00:01;;;;;;;3.83;2.70;;;;;;;;;;6187611;28;20301;-74
2023/05/11 07:03:06;;;;;;;9.50;2.90;;;;;;;;;;6187829;28;20570;-74
2023/05/11 07:06:12;;;;;;;5.88;2.80;;;;;;;;;;6186923;28;20298;-74
2023/05/11 07:09:17;;;;;;;7.28;2.88;;;;;;;;;;6187327;28;20297;-75
2023/05/11 07:12:23;;;;;;;5.38;2.95;;;;;;;;;;6207546;28;20576;-76
2023/05/11 07:15:30;;;;;;;10.48;3.35;;;;;;;;;;6209876;28;20301;-75
2023/05/11 07:18:35;;;;;;;5.82;3.15;;;;;;;;;;6211136;28;20292;-75
2023/05/11 07:21:42;;;;;;;7.90;2.83;;;;;;;;;;6211294;28;20305;-76
2023/05/11 07:24:47;;;;;;;8.80;3.00;;;;;;;;;;6209816;28;20316;-75
2023/05/11 07:27:52;;;;;;;5.07;2.50;;;;;;;;;;6210733;28;20593;-76
2023/05/11 07:30:59;;;;;;;10.18;3.05;;;;;;;;;;6210792;28;20289;-75
2023/05/11 07:34:04;;;;;;;6.45;2.95;;;;;;;;;;6210357;28;20503;-75
2023/05/11 07:37:11;;;;;;;8.27;2.60;;;;;;;;;;6231968;28;20292;-75
2023/05/11 07:40:16;;;;;;;9.52;3.17;;;;;;;;;;6241297;28;20325;-75
2023/05/11 07:43:22;;;;;;;6.82;3.00;;;;;;;;;;6258841;28;20344;-75
2023/05/11 07:46:28;;;;;;;5.10;2.78;;;;;;;;;;6235123;28;20335;-75
2023/05/11 07:49:33;;;;;;;3.53;2.85;;;;;;;;;;6260411;28;20315;-75
2023/05/11 07:52:47;;;;;;;7.15;3.00;;;;;;;;;;6260183;28;20356;-76
2023/05/11 07:55:53;;;;;;;7.68;2.95;;;;;;;;;;6259600;28;20291;-74
2023/05/11 07:58:58;;;;;;;3.03;2.80;;;;;;;;;;6259582;28;20287;-75
2023/05/11 08:02:05;;;;;;;8.20;3.00;;;;;;;;;;6259670;28;20485;-74
2023/05/11 08:05:11;;;;;;;11.13;3.10;;;;;;;;;;6259646;28;20484;-74
2023/05/11 08:08:16;;;;;;;7.70;3.10;;;;;;;;;;6258792;28;20296;-75
2023/05/11 08:11:22;;;;;;;11.52;3.20;;;;;;;;;;6247603;28;20292;-74
2023/05/11 08:14:28;;;;;;;6.10;2.97;;;;;;;;;;6235406;28;20288;-74
2023/05/11 08:17:35;;;;;;;10.93;2.80;;;;;;;;;;6235526;28;20301;-75
2023/05/11 08:20:41;;;;;;;9.63;3.15;;;;;;;;;;6234908;28;20288;-77
2023/05/11 08:23:46;;;;;;;7.85;3.92;;;;;;;;;;6234889;28;20584;-75
2023/05/11 08:26:51;;;;;;;4.78;2.60;;;;;;;;;;6235307;28;20583;-74
2023/05/11 08:29:56;;;;;;;15.63;3.28;;;;;;;;;;6233834;28;20296;-74
2023/05/11 08:33:03;;;;;;;18.00;2.88;;;;;;;;;;6235345;28;20288;-75
2023/05/11 08:36:28;;;;;;;8.10;2.97;;;;;;;;;;6249957;28;20458;-75
2023/05/11 08:39:34;;;;;;;7.00;3.00;;;;;;;;;;6259425;28;20588;-75
2023/05/11 08:42:54;;;;;;;7.95;3.00;;;;;;;;;;6259263;28;20300;-77
2023/05/11 08:46:03;;;;;;;5.90;3.00;;;;;;;;;;6258579;28;20296;-75
2023/05/11 08:49:13;;;;;;;10.40;3.10;;;;;;;;;;6263232;28;20431;-75
2023/05/11 08:52:19;;;;;;;18.15;3.10;;;;;;;;;;6263944;28;20292;-75
2023/05/11 08:55:27;;;;;;;10.35;2.80;;;;;;;;;;6263651;28;20292;-75
2023/05/11 08:58:33;;;;;;;9.80;2.88;;;;;;;;;;6262562;28;20303;-75
2023/05/11 09:01:40;;;;;;;14.85;3.92;;;;;;;;;;6263499;28;20272;-75
2023/05/11 09:04:47;;;;;;;10.75;2.97;;;;;;;;;;6263138;28;20291;-75
2023/05/11 09:07:57;;;;;;;8.65;2.83;;;;;;;;;;6263624;28;20300;-75
2023/05/11 09:11:02;;;;;;;11.75;2.90;;;;;;;;;;6253628;28;20319;-76
2023/05/11 09:14:07;;;;;;;13.25;2.83;;;;;;;;;;6231385;28;20289;-76
2023/05/11 09:17:13;;;;;;;14.63;3.70;;;;;;;;;;6214421;28;20292;-75
2023/05/11 09:20:27;;;;;;;10.45;3.22;;;;;;;;;;6213905;28;20301;-74
2023/05/11 09:23:33;;;;;;;6.95;2.95;;;;;;;;;;6228764;28;20531;-75
2023/05/11 09:26:38;;;;;;;4.68;2.70;;;;;;;;;;6213874;28;20483;-76
2023/05/11 09:29:43;;;;;;;9.27;2.90;;;;;;;;;;6211847;28;20293;-77
2023/05/11 09:32:56;;;;;;;11.73;2.90;;;;;;;;;;6213986;28;20300;-76
2023/05/11 09:36:04;;;;;;;7.25;2.85;;;;;;;;;;6225183;28;20296;-75
2023/05/11 09:39:10;;;;;;;7.53;2.53;;;;;;;;;;6242693;28;20300;-75
2023/05/11 09:42:19;;;;;;;8.02;2.65;;;;;;;;;;6253207;28;20288;-75
2023/05/11 09:45:40;;;;;;;8.27;3.10;;;;;;;;;;6262275;28;20515;-74
2023/05/11 09:48:45;;;;;;;6.25;3.05;;;;;;;;;;6261274;28;20296;-75
2023/05/11 09:52:01;;;;;;;5.68;2.78;;;;;;;;;;6262536;28;20296;-75
2023/05/11 09:55:11;;;;;;;15.35;3.03;;;;;;;;;;6262194;28;20299;-75
2023/05/11 09:58:16;;;;;;;7.53;2.90;;;;;;;;;;6261305;28;20287;-76
2023/05/11 10:01:31;;;;;;;4.43;3.10;;;;;;;;;;6261910;28;20480;-76
2023/05/11 10:04:36;;;;;;;3.67;3.08;;;;;;;;;;6260831;28;20296;-75
2023/05/11 10:07:42;;;;;;;7.05;2.85;;;;;;;;;;6262007;28;20484;-75
2023/05/11 10:10:48;;;;;;;23.10;3.65;;;;;;;;;;6253632;28;20291;-77
2023/05/11 10:13:53;;;;;;;15.90;4.00;;;;;;;;;;6232164;28;20316;-76
2023/05/11 10:16:59;;;;;;;9.48;3.55;;;;;;;;;;6212983;28;20296;-77
2023/05/11 10:20:05;;;;;;;14.02;3.00;;;;;;;;;;6212661;28;20633;-78
2023/05/11 10:23:16;;;;;;;8.10;2.83;;;;;;;;;;6212112;28;20293;-75
2023/05/11 10:26:21;;;;;;;5.60;2.70;;;;;;;;;;6213207;28;20296;-75
2023/05/11 10:29:27;;;;;;;3.75;2.58;;;;;;;;;;6212696;28;20297;-75
2023/05/11 10:32:36;;;;;;;6.68;2.80;;;;;;;;;;6211515;28;20293;-73
2023/05/11 10:35:41;;;;;;;31.70;3.80;;;;;;;;;;6221009;28;20284;-74
2023/05/11 10:38:47;;;;;;;12.90;3.00;;;;;;;;;;6243147;28;20303;-75
2023/05/11 10:42:04;;;;;;;14.10;3.05;;;;;;;;;;6249051;28;20615;-76
2023/05/11 10:45:22;;;;;;;3.45;2.80;;;;;;;;;;6261678;28;20300;-77
2023/05/11 10:48:42;;;;;;;8.50;2.83;;;;;;;;;;6261079;28;20300;-77
2023/05/11 10:52:04;;;;;;;10.55;2.95;;;;;;;;;;6261300;28;20327;-77
2023/05/11 10:55:20;;;;;;;5.20;2.63;;;;;;;;;;6261001;28;20296;-77
2023/05/11 10:58:33;;;;;;;4.90;2.60;;;;;;;;;;6260969;28;20291;-76
2023/05/11 11:01:40;;;;;;;10.30;2.58;;;;;;;;;;6258981;28;20267;-75
2023/05/11 11:04:46;;;;;;;9.15;3.20;;;;;;;;;;6260608;28;20308;-76
2023/05/11 11:07:59;;;;;;;7.82;3.10;;;;;;;;;;6261127;28;20295;-76
2023/05/11 11:11:28;;;;;;;6.13;2.90;;;;;;;;;;6250202;28;20292;-77
2023/05/11 11:14:53;;;;;;;14.50;2.78;;;;;;;;;;6235687;28;20304;-76
2023/05/11 11:18:19;;;;;;;11.68;3.17;;;;;;;;;;6236084;28;20296;-75
2023/05/11 11:21:41;;;;;;;6.13;3.10;;;;;;;;;;6233945;28;20297;-76
2023/05/11 11:24:47;;;;;;;8.65;2.97;;;;;;;;;;6234196;28;20359;-75
2023/05/11 11:27:58;;;;;;;8.52;3.38;;;;;;;;;;6235812;28;20296;-75
2023/05/11 11:31:25;;;;;;;5.05;2.70;;;;;;;;;;6235581;28;20351;-75
2023/05/11 11:34:37;;;;;;;9.35;2.75;;;;;;;;;;6234619;28;20294;-76
2023/05/11 11:38:00;;;;;;;11.77;3.03;;;;;;;;;;6211156;28;20270;-75
2023/05/11 11:41:08;;;;;;;23.90;3.60;;;;;;;;;;6211175;28;20285;-77
2023/05/11 11:44:23;;;;;;;10.60;2.85;;;;;;;;;;6210948;28;20313;-74
2023/05/11 11:47:28;;;;;;;11.05;3.28;;;;;;;;;;6211153;28;20308;-75
2023/05/11 11:50:34;;;;;;;7.85;2.72;;;;;;;;;;6210476;28;20300;-77
2023/05/11 11:54:06;;;;;;;6.70;3.05;;;;;;;;;;6210714;28;20288;-75
2023/05/11 11:57:47;;;;;;;8.57;3.20;;;;;;;;;;6211579;28;20312;-75
2023/05/11 12:00:54;;;;;;;11.73;3.35;;;;;;;;;;6210847;28;20405;-76
2023/05/11 12:04:32;;;;;;;12.80;3.03;;;;;;;;;;6210113;28;20310;-75
2023/05/11 12:07:41;;;;;;;9.45;2.78;;;;;;;;;;6178792;28;20270;-76
2023/05/11 12:10:48;;;;;;;11.48;3.10;;;;;;;;;;6224542;28;20300;-75
2023/05/11 12:13:54;;;;;;;18.10;3.30;;;;;;;;;;6257668;28;20292;-76
2023/05/11 12:17:15;;;;;;;6.97;3.22;;;;;;;;;;6259812;28;20303;-74
2023/05/11 12:20:21;;;;;;;15.05;3.10;;;;;;;;;;6257969;28;20336;-75
2023/05/11 12:23:27;;;;;;;20.98;3.83;;;;;;;;;;6264219;28;20303;-76
2023/05/11 12:26:34;;;;;;;17.35;4.10;;;;;;;;;;6265003;28;20303;-76
2023/05/11 12:29:40;;;;;;;14.25;3.10;;;;;;;;;;6264001;28;20489;-76
2023/05/11 12:32:46;;;;;;;11.48;3.17;;;;;;;;;;6264442;28;20295;-76
2023/05/11 12:35:53;;;;;;;19.27;3.67;;;;;;;;;;6253317;28;20296;-75
2023/05/11 12:38:58;;;;;;;19.70;2.95;;;;;;;;;;6239263;28;20299;-75
2023/05/11 12:42:04;;;;;;;24.13;3.35;;;;;;;;;;6239686;28;20319;-75
2023/05/11 12:45:11;;;;;;;18.77;3.78;;;;;;;;;;6237361;28;20296;-75
2023/05/11 12:48:17;;;;;;;9.70;3.17;;;;;;;;;;6238325;28;20292;-75
2023/05/11 12:51:51;;;;;;;11.82;2.75;;;;;;;;;;6238582;28;20547;-75
2023/05/11 12:54:58;;;;;;;20.50;3.40;;;;;;;;;;6238306;28;20309;-75
2023/05/11 12:58:12;;;;;;;16.98;3.55;;;;;;;;;;6238379;28;20303;-75
2023/05/11 13:01:25;;;;;;;12.20;3.30;;;;;;;;;;6237932;28;20565;-75
2023/05/11 13:04:32;;;;;;;16.40;3.70;;;;;;;;;;6237506;28;20300;-74
2023/05/11 13:07:37;;;;;;;5.50;3.03;;;;;;;;;;6270637;28;20281;-75
2023/05/11 13:10:42;;;;;;;9.43;3.05;;;;;;;;;;6244780;28;20295;-74
2023/05/11 13:13:47;;;;;;;8.27;3.03;;;;;;;;;;6262831;28;20477;-75
2023/05/11 13:16:55;;;;;;;3.83;2.92;;;;;;;;;;6263272;28;20287;-76
2023/05/11 13:23:31;;;;;;;9.52;3.03;;;;;;;;;;6322289;27;20591;-75
2023/05/11 13:26:36;;;;;;;5.93;3.00;;;;;;;;;;6306463;28;20298;-76
2023/05/11 13:29:41;;;;;;;8.98;2.88;;;;;;;;;;6305761;28;20286;-74
2023/05/11 13:32:46;;;;;;;11.35;2.85;;;;;;;;;;6306101;27;20420;-74
2023/05/11 13:35:51;;;;;;;15.48;3.00;;;;;;;;;;6304225;28;20294;-74
2023/05/11 13:38:58;;;;;;;11.50;3.15;;;;;;;;;;6304278;28;20532;-74
2023/05/11 13:42:03;;;;;;;7.13;3.15;;;;;;;;;;6304384;28;20563;-74
2023/05/11 13:45:10;;;;;;;5.63;2.58;;;;;;;;;;6305315;28;20298;-75
2023/05/11 13:48:34;;;;;;;7.25;2.80;;;;;;;;;;6303862;28;20286;-75
2023/05/11 13:51:39;;;;;;;3.47;2.70;;;;;;;;;;6305490;28;20294;-75
2023/05/11 13:54:45;;;;;;;3.45;2.72;;;;;;;;;;6304813;28;20290;-74
2023/05/11 13:57:51;;;;;;;10.05;2.50;;;;;;;;;;6305248;28;20294;-75
2023/05/11 14:00:58;;;;;;;5.97;2.90;;;;;;;;;;6304744;28;20402;-75
2023/05/11 14:04:12;;;;;;;9.48;3.33;;;;;;;;;;6304547;28;20358;-75
2023/05/11 14:07:17;;;;;;;10.30;2.97;;;;;;;;;;6305453;28;20298;-75
2023/05/11 14:10:24;;;;;;;6.07;2.90;;;;;;;;;;6303419;28;20343;-75
2023/05/11 14:13:32;;;;;;;10.32;2.90;;;;;;;;;;6302534;28;20316;-75
2023/05/11 14:16:37;;;;;;;14.65;3.50;;;;;;;;;;6303685;28;20286;-74
2023/05/11 14:19:42;;;;;;;7.07;2.80;;;;;;;;;;6303208;28;20298;-74
2023/05/11 14:22:48;;;;;;;5.38;2.90;;;;;;;;;;6304444;28;20286;-76
2023/05/11 14:25:54;;;;;;;7.03;2.60;;;;;;;;;;6304442;28;20325;-76
2023/05/11 14:28:59;;;;;;;3.85;2.92;;;;;;;;;;6302687;28;20382;-76
2023/05/11 14:32:05;;;;;;;4.93;2.58;;;;;;;;;;6303270;28;20504;-75
2023/05/11 14:35:11;;;;;;;8.93;3.05;;;;;;;;;;6286517;28;20294;-73
2023/05/11 14:38:17;;;;;;;9.85;3.20;;;;;;;;;;6287603;28;20327;-75
2023/05/11 14:41:24;;;;;;;3.05;2.85;;;;;;;;;;6287711;28;20467;-75
2023/05/11 14:44:30;;;;;;;4.40;2.92;;;;;;;;;;6287193;28;20295;-76
2023/05/11 14:47:35;;;;;;;8.20;3.08;;;;;;;;;;6286858;28;20294;-73
2023/05/11 14:50:41;;;;;;;7.13;2.92;;;;;;;;;;6286864;28;20290;-75
2023/05/11 14:53:47;;;;;;;11.90;3.20;;;;;;;;;;6287269;28;20311;-75
2023/05/11 14:56:53;;;;;;;8.40;2.90;;;;;;;;;;6287801;28;20311;-76
2023/05/11 15:00:01;;;;;;;13.38;3.00;;;;;;;;;;6287223;28;20482;-78
2023/05/11 15:03:09;;;;;;;12.93;3.10;;;;;;;;;;6288067;28;20294;-75
2023/05/11 15:06:19;;;;;;;7.45;3.10;;;;;;;;;;6287212;28;20560;-75
2023/05/11 15:09:25;;;;;;;6.55;2.70;;;;;;;;;;6287308;28;20336;-75
2023/05/11 15:12:31;;;;;;;7.18;2.80;;;;;;;;;;6286313;28;20291;-73
2023/05/11 15:15:37;;;;;;;3.55;3.25;;;;;;;;;;6287238;28;20295;-76
2023/05/11 15:18:43;;;;;;;18.20;3.00;;;;;;;;;;6286826;28;20314;-74
2023/05/11 15:21:49;;;;;;;4.55;2.72;;;;;;;;;;6286097;28;20299;-76
2023/05/11 15:24:54;;;;;;;2.75;2.65;;;;;;;;;;6287046;28;20295;-74
2023/05/11 15:28:01;;;;;;;6.22;2.90;;;;;;;;;;6287534;28;20315;-75
2023/05/11 15:31:06;;;;;;;6.43;2.58;;;;;;;;;;6286824;28;20290;-78
2023/05/11 15:34:12;;;;;;;4.20;3.10;;;;;;;;;;6286471;28;20294;-77
2023/05/11 15:37:17;;;;;;;6.22;2.83;;;;;;;;;;6287032;28;20299;-76
2023/05/11 15:40:23;;;;;;;4.88;2.78;;;;;;;;;;6286334;28;20484;-79
2023/05/11 15:43:29;;;;;;;5.57;3.03;;;;;;;;;;6285446;28;20290;-77
2023/05/11 15:46:35;;;;;;;6.53;3.10;;;;;;;;;;6285929;28;20283;-77
2023/05/11 15:49:40;;;;;;;12.70;3.10;;;;;;;;;;6286033;28;20312;-75
2023/05/11 15:52:45;;;;;;;38.95;4.05;;;;;;;;;;6285085;28;20286;-74
2023/05/11 15:55:54;;;;;;;5.68;2.95;;;;;;;;;;6284725;28;20290;-75
2023/05/11 15:59:00;;;;;;;4.43;2.53;;;;;;;;;;6286038;28;20305;-75
2023/05/11 16:02:06;;;;;;;6.55;2.50;;;;;;;;;;6285752;28;20362;-76
2023/05/11 16:05:12;;;;;;;5.93;3.00;;;;;;;;;;6286048;28;20290;-76
2023/05/11 16:08:17;;;;;;;9.00;3.17;;;;;;;;;;6285951;28;20294;-74
2023/05/11 16:11:23;;;;;;;5.07;3.28;;;;;;;;;;6285931;28;20294;-74
2023/05/11 16:14:31;;;;;;;7.38;3.10;;;;;;;;;;6286033;28;20291;-75
2023/05/11 16:17:36;;;;;;;11.60;2.92;;;;;;;;;;6285870;28;20287;-75
2023/05/11 16:20:42;;;;;;;5.72;3.00;;;;;;;;;;6284236;28;20498;-75
2023/05/11 16:23:47;;;;;;;11.35;3.08;;;;;;;;;;6285307;28;20294;-74
2023/05/11 16:26:52;;;;;;;7.97;3.00;;;;;;;;;;6285984;28;20291;-73
2023/05/11 16:29:59;;;;;;;11.25;2.90;;;;;;;;;;6285319;28;20296;-74
2023/05/11 16:33:14;;;;;;;3.33;2.75;;;;;;;;;;6285251;28;20308;-75
2023/05/11 16:36:19;;;;;;;7.43;3.58;;;;;;;;;;6284542;28;20295;-74
2023/05/11 16:39:25;;;;;;;5.38;2.70;;;;;;;;;;6284641;28;20306;-75
2023/05/11 16:42:31;;;;;;;5.85;3.03;;;;;;;;;;6285398;28;20299;-76
2023/05/11 16:45:37;;;;;;;11.77;2.80;;;;;;;;;;6285132;28;20307;-76
2023/05/11 16:48:42;;;;;;;9.27;3.08;;;;;;;;;;6285101;28;20291;-76
2023/05/11 16:51:48;;;;;;;5.50;2.60;;;;;;;;;;6284346;28;20290;-76
2023/05/11 16:54:53;;;;;;;10.00;2.90;;;;;;;;;;6283978;28;20303;-75
2023/05/11 16:58:01;;;;;;;8.07;2.90;;;;;;;;;;6284645;28;20294;-75
2023/05/11 17:01:08;;;;;;;12.18;3.30;;;;;;;;;;6284248;28;20296;-73
2023/05/11 17:04:13;;;;;;;6.53;2.95;;;;;;;;;;6284998;28;20302;-75
2023/05/11 17:07:19;;;;;;;5.72;2.72;;;;;;;;;;6285908;28;20548;-74
2023/05/11 17:10:24;;;;;;;6.43;3.03;;;;;;;;;;6284865;28;20303;-74
2023/05/11 17:13:29;;;;;;;14.68;3.10;;;;;;;;;;6283183;28;20279;-75
2023/05/11 17:16:36;;;;;;;7.53;3.20;;;;;;;;;;6285405;28;20275;-74
2023/05/11 17:19:41;;;;;;;8.52;2.47;;;;;;;;;;6285521;28;20298;-75
2023/05/11 17:22:47;;;;;;;3.17;3.05;;;;;;;;;;6285606;28;20323;-76
2023/05/11 17:25:53;;;;;;;5.13;2.65;;;;;;;;;;6285585;28;20319;-76
2023/05/11 17:28:59;;;;;;;5.13;2.40;;;;;;;;;;6285197;28;20287;-74
2023/05/11 17:32:05;;;;;;;2.75;2.65;;;;;;;;;;6285289;28;20291;-76
2023/05/11 17:35:11;;;;;;;10.27;2.92;;;;;;;;;;6284845;28;20299;-74
2023/05/11 17:38:16;;;;;;;12.73;2.60;;;;;;;;;;6284623;28;20290;-74
2023/05/11 17:41:22;;;;;;;11.63;3.00;;;;;;;;;;6285226;28;20292;-75
2023/05/11 17:44:30;;;;;;;5.00;2.60;;;;;;;;;;6283961;28;20298;-75
2023/05/11 17:47:36;;;;;;;8.27;2.60;;;;;;;;;;6285135;28;20287;-77
2023/05/11 17:50:42;;;;;;;9.27;2.72;;;;;;;;;;6284217;28;20298;-76
2023/05/11 17:53:48;;;;;;;8.98;2.70;;;;;;;;;;6284101;28;20480;-76
2023/05/11 17:56:53;;;;;;;12.55;3.03;;;;;;;;;;6284589;28;20587;-78
2023/05/11 17:59:59;;;;;;;3.13;2.70;;;;;;;;;;6284431;28;20335;-76
2023/05/11 18:03:05;;;;;;;2.80;2.60;;;;;;;;;;6266929;28;20300;-74
2023/05/11 18:06:11;;;;;;;6.80;2.58;;;;;;;;;;6284468;28;20299;-77
2023/05/11 18:09:17;;;;;;;5.85;2.67;;;;;;;;;;6287624;28;20302;-76
2023/05/11 18:12:22;;;;;;;2.88;2.67;;;;;;;;;;6290268;28;20331;-76
2023/05/11 18:15:28;;;;;;;3.85;2.67;;;;;;;;;;6288817;28;20294;-77
2023/05/11 18:18:34;;;;;;;7.85;2.83;;;;;;;;;;6288506;28;20290;-76
2023/05/11 18:21:40;;;;;;;7.05;2.85;;;;;;;;;;6287702;28;20291;-76
2023/05/11 18:24:45;;;;;;;8.48;2.80;;;;;;;;;;6288281;28;20359;-74
2023/05/11 18:27:50;;;;;;;2.65;2.55;;;;;;;;;;6288612;28;20456;-74
2023/05/11 18:30:56;;;;;;;3.58;2.70;;;;;;;;;;6288577;28;20286;-75
2023/05/11 18:34:03;;;;;;;2.53;2.42;;;;;;;;;;6288124;28;20299;-76
2023/05/11 18:37:09;;;;;;;5.90;2.67;;;;;;;;;;6287466;28;20282;-77
2023/05/11 18:40:14;;;;;;;3.78;2.65;;;;;;;;;;6288096;28;20295;-75
2023/05/11 18:43:19;;;;;;;5.13;2.60;;;;;;;;;;6288039;28;20298;-76
2023/05/11 18:46:25;;;;;;;4.28;2.80;;;;;;;;;;6288457;28;20449;-76